createdAt,value
2019-01-24T00:00:54.341Z,13.48
2019-01-24T00:10:58.292Z,14.03
2019-01-24T00:21:02.389Z,14.38
2019-01-24T00:31:06.436Z,14.07
2019-01-24T00:41:10.399Z,15.18
2019-01-24T00:51:14.894Z,12.98
2019-01-24T01:01:18.879Z,12.90
2019-01-24T01:11:22.919Z,14.25
2019-01-24T01:21:26.871Z,12.55
2019-01-24T01:31:30.931Z,13.25
2019-01-24T01:41:34.982Z,12.20
2019-01-24T01:51:38.882Z,11.73
2019-01-24T02:01:45.711Z,11.80
2019-01-24T02:11:49.658Z,12.20
2019-01-24T02:21:53.636Z,11.60
2019-01-24T02:31:57.608Z,10.93
2019-01-24T02:42:01.586Z,11.35
2019-01-24T02:52:05.532Z,10.43
2019-01-24T03:02:09.566Z,10.10
2019-01-24T03:12:13.474Z,9.63
2019-01-24T03:22:17.494Z,9.65
2019-01-24T03:32:21.442Z,9.78
2019-01-24T03:42:26.582Z,9.90
2019-01-24T03:52:30.529Z,10.05
2019-01-24T04:02:34.573Z,10.32
2019-01-24T04:12:38.545Z,10.35
2019-01-24T04:22:42.894Z,9.35
2019-01-24T04:32:46.863Z,9.95
2019-01-24T04:42:50.851Z,9.58
2019-01-24T04:52:54.819Z,9.75
2019-01-24T05:02:58.787Z,9.90
2019-01-24T05:13:02.830Z,10.32
2019-01-24T05:23:06.842Z,9.05
2019-01-24T05:33:10.960Z,9.85
2019-01-24T05:43:14.970Z,8.50
2019-01-24T05:53:18.937Z,8.75
2019-01-24T06:03:22.957Z,8.70
2019-01-24T06:13:26.970Z,9.20
2019-01-24T06:23:31.022Z,7.85
2019-01-24T06:33:34.964Z,9.68
2019-01-24T06:43:38.909Z,7.35
2019-01-24T06:53:42.861Z,7.85
2019-01-24T07:03:46.819Z,7.83
2019-01-24T07:13:50.804Z,7.10
2019-01-24T07:23:54.754Z,6.70
2019-01-24T07:33:58.699Z,6.90
2019-01-24T07:44:02.647Z,6.90
2019-01-24T07:54:06.744Z,7.05
2019-01-24T08:04:10.710Z,7.20
2019-01-24T08:14:14.651Z,6.45
2019-01-24T08:24:31.933Z,11.30
2019-01-24T08:34:36.244Z,12.00
2019-01-24T08:44:40.386Z,8.68
2019-01-24T08:54:47.115Z,7.05
2019-01-24T09:04:54.718Z,7.53
2019-01-24T09:15:00.536Z,8.25
2019-01-24T09:25:06.728Z,8.35
2019-01-24T09:35:11.984Z,8.20
2019-01-24T09:45:26.980Z,8.13
2019-01-24T09:55:30.839Z,9.00
2019-01-24T10:05:34.808Z,8.20
2019-01-24T10:15:38.771Z,8.78
2019-01-24T10:25:42.753Z,9.23
2019-01-24T10:35:46.696Z,9.68
2019-01-24T10:45:50.643Z,9.18
2019-01-24T10:55:59.618Z,10.18
2019-01-24T11:06:03.691Z,9.78
2019-01-24T11:16:07.663Z,8.70
2019-01-24T11:26:18.031Z,10.10
2019-01-24T11:36:22.019Z,9.23
2019-01-24T11:46:25.996Z,9.40
2019-01-24T11:56:30.077Z,8.90
2019-01-24T12:06:34.120Z,8.50
2019-01-24T12:16:39.819Z,7.42
2019-01-24T12:26:45.412Z,7.58
2019-01-24T12:36:49.489Z,7.70
2019-01-24T12:46:53.430Z,7.65
2019-01-24T12:56:57.380Z,8.38
2019-01-24T13:07:01.705Z,8.25
2019-01-24T13:17:05.670Z,8.58
2019-01-24T13:27:09.652Z,10.05
2019-01-24T13:37:13.615Z,10.10
2019-01-24T13:47:17.608Z,10.38
2019-01-24T13:57:21.554Z,10.48
2019-01-24T14:07:25.531Z,9.75
2019-01-24T14:17:29.499Z,9.70
2019-01-24T14:27:33.487Z,9.85
2019-01-24T14:37:39.834Z,9.28
2019-01-24T14:47:43.075Z,8.73
2019-01-24T14:57:47.023Z,8.68
2019-01-24T15:07:51.373Z,7.65
2019-01-24T15:17:55.313Z,8.65
2019-01-24T15:27:59.302Z,8.33
2019-01-24T15:38:03.271Z,11.40
2019-01-24T15:48:07.247Z,7.85
2019-01-24T15:58:11.273Z,8.13
2019-01-24T16:08:15.222Z,7.62
2019-01-24T16:18:19.207Z,8.55
2019-01-24T16:28:24.765Z,9.08
2019-01-24T16:38:28.992Z,8.88
2019-01-24T16:48:33.132Z,10.20
2019-01-24T16:58:37.173Z,10.05
2019-01-24T17:08:41.293Z,10.82
2019-01-24T17:18:45.256Z,9.53
2019-01-24T17:28:50.032Z,9.93
2019-01-24T17:38:54.172Z,10.80
2019-01-24T17:48:58.383Z,10.50
2019-01-24T17:59:02.626Z,9.30
2019-01-24T18:09:07.043Z,9.50
2019-01-24T18:19:11.025Z,8.98
2019-01-24T18:29:14.973Z,9.40
2019-01-24T18:39:19.101Z,9.85
2019-01-24T18:49:23.215Z,10.40
2019-01-24T18:59:27.177Z,9.28
2019-01-24T19:09:32.030Z,9.08
2019-01-24T19:19:36.068Z,9.38
2019-01-24T19:29:40.551Z,9.68
2019-01-24T19:39:44.754Z,8.95
2019-01-24T19:49:48.761Z,10.78
2019-01-24T19:59:52.731Z,10.32
2019-01-24T20:09:56.685Z,9.80
2019-01-24T20:20:00.736Z,8.65
2019-01-24T20:30:10.732Z,8.75
2019-01-24T20:40:15.132Z,8.85
2019-01-24T20:50:19.255Z,9.43
2019-01-24T21:00:26.406Z,9.08
2019-01-24T21:10:30.646Z,8.05
2019-01-24T21:20:34.703Z,9.25
2019-01-24T21:30:39.798Z,9.75
2019-01-24T21:40:44.006Z,9.93
2019-01-24T21:50:48.355Z,10.48
2019-01-24T22:00:52.331Z,10.20
2019-01-24T22:10:56.315Z,9.65
2019-01-24T22:21:00.263Z,9.50
2019-01-24T22:31:04.208Z,9.93
2019-01-24T22:41:08.179Z,10.45
2019-01-24T22:51:12.159Z,8.93
2019-01-24T23:01:28.110Z,9.48
2019-01-24T23:11:32.081Z,9.28
2019-01-24T23:21:36.102Z,9.08
2019-01-24T23:31:40.115Z,9.38
2019-01-24T23:41:44.080Z,9.50
2019-01-24T23:51:48.049Z,8.50
